Time;durP1;ratioP1;P1;durP2;ratioP2;P2;SDS_P1;SDS_P2;PMS_P1;PMS_P2;Temp;Humidity;BMP_temperature;BMP_pressure;BME280_temperature;BME280_humidity;BME280_pressure;Samples;Min_cycle;Max_cycle;Signal;HPM_P1;HPM_P2
2020/12/28 00:01:32;;;;;;;5.97;1.13;;;;;;;18.42;73.36;101293.69;5051059;28;20033;-73
2020/12/28 00:03:57;;;;;;;3.20;1.00;;;;;;;18.42;74.09;101291.88;5050984;28;20064;-73
2020/12/28 00:06:22;;;;;;;2.00;1.05;;;;;;;18.43;73.88;101284.75;5049939;28;20048;-73
2020/12/28 00:08:48;;;;;;;7.35;0.82;;;;;;;18.43;73.44;101282.09;5050334;28;20571;-73
2020/12/28 00:11:13;;;;;;;4.68;1.45;;;;;;;18.42;73.96;101291.00;5042547;28;20476;-73
2020/12/28 00:13:38;;;;;;;7.25;1.00;;;;;;;18.42;73.48;101291.00;5046739;28;20034;-74
2020/12/28 00:16:03;;;;;;;5.30;1.15;;;;;;;18.41;73.69;101282.09;5046764;28;20032;-73
2020/12/28 00:18:29;;;;;;;5.28;1.02;;;;;;;18.41;73.74;101284.75;5047174;28;20052;-74
2020/12/28 00:20:54;;;;;;;4.22;1.10;;;;;;;18.43;73.71;101287.44;5034298;28;20060;-74
2020/12/28 00:23:19;;;;;;;4.82;1.00;;;;;;;18.46;73.72;101290.06;5050995;28;20099;-74
2020/12/28 00:25:45;;;;;;;4.00;1.00;;;;;;;18.44;73.63;101289.22;5049850;28;20050;-74
2020/12/28 00:28:10;;;;;;;2.67;0.90;;;;;;;18.42;73.25;101285.66;5051117;28;20124;-74
2020/12/28 00:30:35;;;;;;;2.20;0.80;;;;;;;18.43;73.40;101276.75;5050620;28;20061;-73
2020/12/28 00:33:01;;;;;;;3.60;1.00;;;;;;;18.44;73.75;101281.19;5049454;28;20041;-73
2020/12/28 00:35:26;;;;;;;2.05;1.00;;;;;;;18.45;73.80;101273.13;5049810;28;20036;-74
2020/12/28 00:37:51;;;;;;;4.40;0.98;;;;;;;18.44;73.30;101279.41;5049760;28;20426;-77
2020/12/28 00:40:17;;;;;;;0.88;0.65;;;;;;;18.44;73.81;101273.16;5047336;28;20041;-74
2020/12/28 00:42:42;;;;;;;2.97;1.10;;;;;;;18.42;73.74;101270.50;5037286;28;20037;-73
2020/12/28 00:45:08;;;;;;;2.95;0.90;;;;;;;18.44;73.16;101265.16;5051302;28;20040;-73
2020/12/28 00:47:34;;;;;;;3.42;0.90;;;;;;;18.43;73.37;101272.28;5049939;28;20025;-73
2020/12/28 00:49:59;;;;;;;0.98;0.80;;;;;;;18.43;73.61;101272.28;5049477;28;20412;-74
2020/12/28 00:52:24;;;;;;;1.90;0.98;;;;;;;18.44;73.50;101266.03;5049692;28;20036;-74
2020/12/28 00:54:50;;;;;;;1.23;0.80;;;;;;;18.44;73.66;101270.50;5047561;28;20040;-73
2020/12/28 00:57:15;;;;;;;1.77;0.77;;;;;;;18.47;73.52;101273.13;5045449;28;20033;-76
2020/12/28 00:59:41;;;;;;;8.05;1.02;;;;;;;18.44;73.90;101265.16;5048872;28;20704;-73
2020/12/28 01:02:06;;;;;;;4.57;0.88;;;;;;;18.40;73.32;101258.03;5049095;28;20049;-74
2020/12/28 01:04:31;;;;;;;1.52;0.90;;;;;;;18.39;73.97;101251.78;5049844;28;20063;-73
2020/12/28 01:06:57;;;;;;;0.93;0.80;;;;;;;18.36;73.55;101249.16;5048984;28;20460;-74
2020/12/28 01:09:22;;;;;;;1.90;1.25;;;;;;;18.39;73.88;101258.94;5049036;28;20036;-73
2020/12/28 01:11:47;;;;;;;1.20;0.90;;;;;;;18.37;73.93;101258.97;5044640;28;20194;-74
2020/12/28 01:14:12;;;;;;;1.88;0.90;;;;;;;18.38;73.78;101254.50;5048658;28;20076;-74
2020/12/28 01:16:38;;;;;;;4.25;0.88;;;;;;;18.37;73.76;101252.72;5048801;28;20045;-75
2020/12/28 01:19:03;;;;;;;1.73;0.73;;;;;;;18.37;73.64;101256.28;5048799;28;20041;-75
2020/12/28 01:21:28;;;;;;;2.75;0.80;;;;;;;18.37;73.55;101255.41;5046924;28;20045;-75
2020/12/28 01:23:54;;;;;;;1.45;0.80;;;;;;;18.39;73.49;101253.59;5048641;28;20049;-76
2020/12/28 01:26:19;;;;;;;3.08;0.70;;;;;;;18.43;73.12;101250.00;5050403;28;20425;-76
2020/12/28 01:28:44;;;;;;;1.85;0.77;;;;;;;18.44;73.26;101243.75;5048724;28;20569;-75
2020/12/28 01:31:10;;;;;;;2.22;0.80;;;;;;;18.44;73.27;101251.78;5043030;28;20152;-76
2020/12/28 01:33:35;;;;;;;5.03;0.90;;;;;;;18.42;73.45;101248.22;5047695;28;20075;-75
2020/12/28 01:36:00;;;;;;;2.92;0.70;;;;;;;18.43;73.18;101245.53;5030798;28;20091;-76
2020/12/28 01:38:26;;;;;;;4.45;0.93;;;;;;;18.44;73.19;101251.78;5033211;28;20048;-74
2020/12/28 01:40:51;;;;;;;2.08;0.70;;;;;;;18.43;73.40;101237.53;5032913;28;20052;-74
2020/12/28 01:43:16;;;;;;;3.13;0.93;;;;;;;18.42;73.09;101233.06;5033562;28;20530;-75
2020/12/28 01:45:42;;;;;;;12.65;1.05;;;;;;;18.44;73.32;101235.75;5038530;28;20038;-76
2020/12/28 01:48:07;;;;;;;5.32;0.80;;;;;;;18.41;73.61;101228.63;5054760;28;20078;-76
2020/12/28 01:50:32;;;;;;;7.45;1.33;;;;;;;18.40;73.31;101226.84;5045163;28;20059;-78
2020/12/28 01:52:58;;;;;;;1.27;0.80;;;;;;;18.41;73.19;101233.06;5052423;28;20064;-78
2020/12/28 01:55:23;;;;;;;1.90;0.70;;;;;;;18.42;73.65;101232.19;5034569;28;20045;-77
2020/12/28 01:57:48;;;;;;;5.30;0.90;;;;;;;18.41;73.16;101233.97;5036212;28;20052;-78
2020/12/28 02:00:14;;;;;;;3.08;0.93;;;;;;;18.39;73.34;101232.19;5052810;28;20087;-78
2020/12/28 02:02:39;;;;;;;1.27;0.75;;;;;;;18.39;73.06;101234.88;5051074;28;20094;-79
2020/12/28 02:05:04;;;;;;;5.88;0.60;;;;;;;18.40;73.18;101234.84;5052771;28;20119;-78
2020/12/28 02:07:30;;;;;;;4.25;0.88;;;;;;;18.40;73.16;101228.63;5053224;28;20053;-78
2020/12/28 02:09:55;;;;;;;0.98;0.77;;;;;;;18.41;72.92;101233.06;5054129;28;20064;-78
2020/12/28 02:12:20;;;;;;;1.52;0.70;;;;;;;18.40;72.89;101226.84;5050885;28;20044;-78
2020/12/28 02:14:46;;;;;;;0.80;0.70;;;;;;;18.38;73.34;101225.97;5048349;28;20071;-79
2020/12/28 02:17:11;;;;;;;1.60;0.80;;;;;;;18.36;73.65;101225.09;5053314;28;20033;-78
2020/12/28 02:19:36;;;;;;;1.02;0.70;;;;;;;18.36;73.53;101216.19;5049856;28;20049;-78
2020/12/28 02:22:02;;;;;;;1.67;0.90;;;;;;;18.38;72.98;101227.78;5045313;28;20029;-78
2020/12/28 02:24:27;;;;;;;1.23;0.70;;;;;;;18.35;73.08;101220.66;5050735;28;20045;-78
2020/12/28 02:26:52;;;;;;;1.08;0.60;;;;;;;18.36;73.09;101224.22;5044511;28;20117;-79
2020/12/28 02:29:18;;;;;;;2.50;0.70;;;;;;;18.37;72.78;101220.66;5041844;28;20059;-78
2020/12/28 02:31:43;;;;;;;1.25;0.98;;;;;;;18.38;72.84;101220.59;5049557;28;20563;-77
2020/12/28 02:34:08;;;;;;;1.25;0.90;;;;;;;18.33;73.39;101212.66;5034006;28;20137;-78
2020/12/28 02:36:34;;;;;;;1.38;0.70;;;;;;;18.36;73.27;101216.19;5034017;28;20044;-78
2020/12/28 02:38:59;;;;;;;0.75;0.60;;;;;;;18.33;73.23;101206.41;5033468;28;20044;-78
2020/12/28 02:41:25;;;;;;;1.17;0.80;;;;;;;18.34;73.05;101213.53;5044596;28;20047;-75
2020/12/28 02:43:50;;;;;;;1.23;0.70;;;;;;;18.31;72.95;101209.09;5035880;28;20042;-76
2020/12/28 02:46:15;;;;;;;9.93;1.00;;;;;;;18.37;72.97;101209.97;5035067;28;20522;-74
2020/12/28 02:48:41;;;;;;;6.93;0.80;;;;;;;18.36;73.05;101209.06;5047057;28;20470;-74
2020/12/28 02:51:06;;;;;;;1.05;0.70;;;;;;;18.33;73.06;101207.28;5050025;28;20033;-74
2020/12/28 02:53:31;;;;;;;4.97;0.90;;;;;;;18.35;73.03;101209.06;5021257;28;20088;-74
2020/12/28 02:55:57;;;;;;;3.13;0.70;;;;;;;18.37;73.12;101215.31;5032169;28;20129;-77
2020/12/28 02:58:22;;;;;;;2.85;0.60;;;;;;;18.36;72.80;101221.53;5047073;28;20044;-75
2020/12/28 03:00:47;;;;;;;0.95;0.50;;;;;;;18.41;73.01;101212.56;5052483;28;20132;-78
2020/12/28 03:03:13;;;;;;;5.15;0.70;;;;;;;18.36;72.94;101208.19;5051360;28;20448;-77
2020/12/28 03:05:38;;;;;;;0.80;0.60;;;;;;;18.35;72.80;101204.63;5051612;28;20335;-76
2020/12/28 03:08:03;;;;;;;1.52;0.70;;;;;;;18.35;72.89;101209.97;5051083;28;20029;-76
2020/12/28 03:10:29;;;;;;;2.28;0.70;;;;;;;18.33;73.00;101201.94;5051277;28;20041;-77
2020/12/28 03:12:55;;;;;;;5.50;0.77;;;;;;;18.32;72.86;101208.19;5048996;28;20040;-77
2020/12/28 03:15:20;;;;;;;0.88;0.68;;;;;;;18.34;72.72;101210.84;5037769;28;20417;-76
2020/12/28 03:17:45;;;;;;;1.35;0.77;;;;;;;18.32;72.65;101218.00;5034248;28;20095;-77
2020/12/28 03:20:11;;;;;;;1.10;0.70;;;;;;;18.36;73.20;101216.19;5050939;28;20154;-78
2020/12/28 03:22:36;;;;;;;1.63;0.82;;;;;;;18.41;72.85;101220.59;5052339;28;20075;-78
2020/12/28 03:25:01;;;;;;;3.95;0.70;;;;;;;18.37;72.99;101215.31;5049604;28;20098;-78
2020/12/28 03:27:27;;;;;;;2.35;0.65;;;;;;;18.35;73.30;101214.41;5051353;28;20033;-77
2020/12/28 03:29:52;;;;;;;4.32;0.65;;;;;;;18.32;72.92;101215.31;5052097;28;20083;-77
2020/12/28 03:32:17;;;;;;;6.43;0.70;;;;;;;18.29;72.84;101210.03;5039429;28;20091;-77
2020/12/28 03:34:43;;;;;;;0.98;0.65;;;;;;;18.31;73.29;101218.94;5049728;28;20036;-77
2020/12/28 03:37:08;;;;;;;3.28;0.80;;;;;;;18.32;73.34;101216.22;5051171;28;20765;-77
2020/12/28 03:39:33;;;;;;;0.95;0.70;;;;;;;18.30;72.91;101223.38;5034186;28;20065;-77
2020/12/28 03:41:59;;;;;;;2.35;0.80;;;;;;;18.28;72.69;101218.94;5032450;28;21029;-78
2020/12/28 03:44:24;;;;;;;0.88;0.60;;;;;;;18.32;72.72;101226.91;5033214;28;20402;-77
2020/12/28 03:46:49;;;;;;;2.88;0.70;;;;;;;18.33;73.31;101234.03;5034109;28;20402;-77
2020/12/28 03:49:15;;;;;;;1.38;0.70;;;;;;;18.34;72.79;101240.25;5031923;28;20395;-75
2020/12/28 03:51:40;;;;;;;0.95;0.60;;;;;;;18.31;72.98;101230.47;5049093;28;20402;-77
2020/12/28 03:54:05;;;;;;;0.95;0.50;;;;;;;18.31;72.98;101234.97;5052201;28;20389;-78
2020/12/28 03:56:31;;;;;;;1.77;0.60;;;;;;;18.35;72.53;101228.69;5042971;28;20119;-77
2020/12/28 03:58:56;;;;;;;2.40;0.70;;;;;;;18.37;72.45;101226.88;5037292;28;20106;-77
2020/12/28 04:01:22;;;;;;;1.15;0.60;;;;;;;18.38;72.47;101233.13;5050700;28;20037;-77
2020/12/28 04:03:48;;;;;;;0.90;0.60;;;;;;;18.38;72.26;101225.97;5049202;28;20041;-77
2020/12/28 04:06:13;;;;;;;2.15;0.75;;;;;;;18.40;72.43;101228.63;5050453;28;20471;-77
2020/12/28 04:08:38;;;;;;;1.63;0.60;;;;;;;18.41;72.44;101230.41;5052318;28;20041;-78
2020/12/28 04:11:04;;;;;;;3.05;0.60;;;;;;;18.35;72.51;101234.03;5046096;28;20077;-76
2020/12/28 04:13:29;;;;;;;0.63;0.60;;;;;;;18.36;72.87;101237.59;5030817;28;20069;-75
2020/12/28 04:15:54;;;;;;;0.57;0.52;;;;;;;18.32;72.46;101237.59;5036810;28;20040;-76
2020/12/28 04:18:20;;;;;;;1.13;0.70;;;;;;;18.33;72.56;101238.47;5049994;28;20042;-76
2020/12/28 04:20:45;;;;;;;1.20;0.65;;;;;;;18.32;72.16;101242.94;5049962;28;20410;-76
2020/12/28 04:23:10;;;;;;;0.70;0.52;;;;;;;18.31;72.72;101243.84;5051199;28;20123;-75
2020/12/28 04:25:35;;;;;;;1.30;0.63;;;;;;;18.31;72.41;101256.34;5048498;28;20064;-76
2020/12/28 04:28:01;;;;;;;2.20;0.50;;;;;;;18.30;72.22;101251.91;5041276;28;20061;-75
2020/12/28 04:30:26;;;;;;;0.70;0.57;;;;;;;18.30;72.14;101250.13;5048032;28;20321;-74
2020/12/28 04:32:52;;;;;;;1.63;0.60;;;;;;;18.30;72.18;101247.44;5045084;28;20041;-74
2020/12/28 04:35:17;;;;;;;0.63;0.57;;;;;;;18.35;72.32;101251.84;5049454;28;20112;-74
2020/12/28 04:37:42;;;;;;;1.45;0.52;;;;;;;18.31;71.96;101257.19;5049206;28;20055;-75
2020/12/28 04:40:08;;;;;;;1.02;0.40;;;;;;;18.31;72.04;101259.88;5034855;28;20111;-74
2020/12/28 04:42:33;;;;;;;5.88;0.50;;;;;;;18.31;72.34;101272.38;5030892;28;20148;-74
2020/12/28 04:44:58;;;;;;;2.67;0.70;;;;;;;18.30;72.32;101266.16;5029461;28;20084;-75
2020/12/28 04:47:24;;;;;;;0.80;0.50;;;;;;;18.33;72.24;101267.88;5030103;28;20044;-75
2020/12/28 04:49:49;;;;;;;1.15;0.60;;;;;;;18.31;71.82;101267.03;5029830;28;20096;-75
2020/12/28 04:52:14;;;;;;;0.60;0.40;;;;;;;18.31;71.85;101267.03;5047129;28;20044;-74
2020/12/28 04:54:40;;;;;;;1.45;0.50;;;;;;;18.27;72.43;101275.97;5029843;28;20041;-74
2020/12/28 04:57:05;;;;;;;1.02;0.50;;;;;;;18.29;72.16;101275.06;5046079;28;20489;-74
2020/12/28 04:59:30;;;;;;;1.35;0.60;;;;;;;18.31;72.38;101285.75;5050750;28;20041;-74
2020/12/28 05:01:56;;;;;;;0.50;0.35;;;;;;;18.29;71.91;101287.53;5047644;28;20041;-75
2020/12/28 05:04:21;;;;;;;0.40;0.40;;;;;;;18.32;71.63;101291.06;5050272;28;20079;-75
2020/12/28 05:06:46;;;;;;;6.65;0.80;;;;;;;18.28;71.83;101281.31;5048399;28;20041;-76
2020/12/28 05:09:12;;;;;;;1.92;0.50;;;;;;;18.29;71.87;101275.06;5049077;28;20037;-75
2020/12/28 05:11:37;;;;;;;0.93;0.50;;;;;;;18.28;72.19;101272.41;5048715;28;20522;-76
2020/12/28 05:14:02;;;;;;;0.88;0.55;;;;;;;18.29;72.35;101268.81;5029694;28;20496;-76
2020/12/28 05:16:28;;;;;;;0.88;0.60;;;;;;;18.27;71.91;101271.50;5043403;28;20045;-76
2020/12/28 05:18:53;;;;;;;0.50;0.32;;;;;;;18.31;72.08;101269.72;5050301;28;20039;-76
2020/12/28 05:21:18;;;;;;;1.20;0.55;;;;;;;18.28;72.16;101270.59;5037968;28;20037;-77
2020/12/28 05:23:44;;;;;;;1.05;0.52;;;;;;;18.28;71.79;101267.94;5029402;28;20467;-77
2020/12/28 05:26:09;;;;;;;3.92;0.40;;;;;;;18.26;71.64;101269.72;5035444;28;20540;-77
2020/12/28 05:28:34;;;;;;;4.53;0.50;;;;;;;18.27;72.00;101265.28;5038153;28;20406;-77
2020/12/28 05:31:00;;;;;;;0.60;0.40;;;;;;;18.26;72.12;101267.06;5042117;28;20045;-77
2020/12/28 05:33:25;;;;;;;0.50;0.40;;;;;;;18.26;71.91;101274.19;5045846;28;20210;-76
2020/12/28 05:35:50;;;;;;;0.60;0.50;;;;;;;18.26;71.60;101279.53;5030641;28;20034;-77
2020/12/28 05:38:16;;;;;;;0.50;0.50;;;;;;;18.24;72.06;101282.25;5029952;28;20394;-77
2020/12/28 05:40:41;;;;;;;0.60;0.50;;;;;;;18.25;71.69;101283.97;5037982;28;20462;-77
2020/12/28 05:43:06;;;;;;;0.52;0.50;;;;;;;18.23;71.56;101283.13;5042973;28;20048;-75
2020/12/28 05:45:32;;;;;;;1.30;0.50;;;;;;;18.24;71.77;101284.03;5029404;28;20041;-75
2020/12/28 05:47:57;;;;;;;5.70;0.50;;;;;;;18.28;71.95;101281.31;5049899;28;20048;-76
2020/12/28 05:50:23;;;;;;;5.63;0.63;;;;;;;18.25;71.77;101285.75;5046367;28;20120;-75
2020/12/28 05:52:48;;;;;;;0.60;0.50;;;;;;;18.26;72.17;101296.47;5046024;28;20153;-76
2020/12/28 05:55:13;;;;;;;2.50;0.60;;;;;;;18.26;72.27;101292.91;5049050;28;20075;-76
2020/12/28 05:57:39;;;;;;;1.63;0.80;;;;;;;18.22;72.02;101292.03;5042560;28;20045;-76
2020/12/28 06:00:04;;;;;;;3.13;0.90;;;;;;;18.22;71.46;101300.06;5029300;28;20104;-77
2020/12/28 06:02:29;;;;;;;0.68;0.63;;;;;;;18.24;71.44;101308.06;5029151;28;20438;-76
2020/12/28 06:04:55;;;;;;;0.95;0.60;;;;;;;18.21;71.43;101300.97;5034024;28;20033;-75
2020/12/28 06:07:20;;;;;;;1.48;0.75;;;;;;;18.26;71.52;101301.81;5041151;28;20450;-74
2020/12/28 06:09:45;;;;;;;1.55;0.80;;;;;;;18.27;70.99;101295.56;5049861;28;20048;-75
2020/12/28 06:12:11;;;;;;;0.82;0.70;;;;;;;18.25;70.91;101304.47;5047967;28;20037;-75
2020/12/28 06:14:36;;;;;;;9.35;0.77;;;;;;;18.31;71.62;101310.66;5048833;28;20410;-75
2020/12/28 06:17:01;;;;;;;5.10;0.80;;;;;;;18.27;71.85;101308.94;5037106;28;20037;-77
2020/12/28 06:19:27;;;;;;;1.00;0.70;;;;;;;18.23;72.04;101317.88;5029847;28;20051;-77
2020/12/28 06:21:52;;;;;;;2.20;0.80;;;;;;;18.28;71.33;101305.38;5045041;28;20066;-80
2020/12/28 06:24:17;;;;;;;1.00;0.70;;;;;;;18.30;71.74;101308.91;5034546;28;20041;-78
2020/12/28 06:26:43;;;;;;;1.27;0.70;;;;;;;18.26;71.89;101307.16;5034140;28;20121;-77
2020/12/28 06:29:08;;;;;;;0.82;0.60;;;;;;;18.25;71.73;101317.84;5045369;28;20064;-77
2020/12/28 06:31:33;;;;;;;1.35;0.70;;;;;;;18.22;71.57;101318.78;5050562;28;20068;-76
2020/12/28 06:33:59;;;;;;;0.70;0.70;;;;;;;18.25;71.40;101326.75;5046342;28;20037;-78
2020/12/28 06:36:24;;;;;;;1.50;0.80;;;;;;;18.29;71.78;101338.31;5052517;28;20037;-75
2020/12/28 06:38:49;;;;;;;3.38;0.77;;;;;;;18.28;71.45;101332.09;5050464;28;20057;-74
2020/12/28 06:41:15;;;;;;;6.18;0.77;;;;;;;18.27;71.47;101334.75;5051560;28;20037;-74
2020/12/28 06:43:40;;;;;;;2.55;0.70;;;;;;;18.28;71.61;101340.09;5052184;28;20130;-75
2020/12/28 06:46:05;;;;;;;0.85;0.80;;;;;;;18.25;71.40;101337.44;5049340;28;20075;-74
2020/12/28 06:48:31;;;;;;;0.90;0.70;;;;;;;18.25;71.46;101342.78;5051573;28;20116;-75
2020/12/28 06:50:56;;;;;;;1.00;0.70;;;;;;;18.24;71.69;101351.72;5051067;28;20041;-75
2020/12/28 06:53:21;;;;;;;3.38;0.85;;;;;;;18.24;71.24;101350.84;5039123;28;20041;-74
2020/12/28 06:55:47;;;;;;;6.68;1.27;;;;;;;18.25;71.74;101358.81;5033986;28;20038;-76
2020/12/28 06:58:12;;;;;;;1.20;0.80;;;;;;;18.24;71.22;101367.78;5043587;28;20044;-75
2020/12/28 07:00:37;;;;;;;1.90;0.90;;;;;;;18.33;71.09;101374.81;5052681;28;20045;-77
2020/12/28 07:03:03;;;;;;;9.05;0.77;;;;;;;18.33;70.86;101372.16;5052960;28;20067;-75
2020/12/28 07:05:28;;;;;;;11.18;0.77;;;;;;;18.28;71.61;101366.84;5051588;28;20040;-75
2020/12/28 07:07:53;;;;;;;1.08;0.60;;;;;;;18.30;71.49;101372.19;5051659;28;20033;-75
2020/12/28 07:10:19;;;;;;;7.68;0.80;;;;;;;18.29;70.96;101370.41;5051059;28;20052;-77
2020/12/28 07:12:44;;;;;;;9.00;0.77;;;;;;;18.37;71.54;101365.91;5032603;28;20061;-76
2020/12/28 07:15:10;;;;;;;13.43;0.82;;;;;;;18.40;70.91;101367.66;5013128;28;20736;-74
2020/12/28 07:17:35;;;;;;;10.32;0.70;;;;;;;18.35;71.01;101369.47;5013248;28;20045;-76
2020/12/28 07:20:00;;;;;;;12.10;1.10;;;;;;;18.37;71.26;101362.34;5028317;28;20037;-76
2020/12/28 07:22:26;;;;;;;7.22;0.70;;;;;;;18.37;70.65;101373.94;5032453;28;20095;-77
2020/12/28 07:24:51;;;;;;;12.00;0.80;;;;;;;18.36;71.27;101372.13;5021071;28;20041;-79
2020/12/28 07:27:16;;;;;;;11.93;0.93;;;;;;;18.37;70.57;101378.38;5028115;28;20048;-78
2020/12/28 07:29:42;;;;;;;8.45;0.80;;;;;;;18.38;70.59;101380.16;5030486;28;20041;-79
2020/12/28 07:32:08;;;;;;;15.23;0.82;;;;;;;18.38;70.92;101386.38;5021275;28;20034;-76
2020/12/28 07:34:34;;;;;;;10.45;1.15;;;;;;;18.38;70.68;101385.50;5035699;28;20667;-77
2020/12/28 07:36:59;;;;;;;11.07;0.80;;;;;;;18.39;70.46;101388.16;5019436;28;20053;-75
2020/12/28 07:39:24;;;;;;;38.50;1.77;;;;;;;18.46;70.62;101389.00;5030295;28;20064;-74
2020/12/28 07:41:50;;;;;;;18.88;1.50;;;;;;;18.47;71.00;101383.66;5020895;28;20068;-76
2020/12/28 07:44:15;;;;;;;14.73;1.20;;;;;;;18.43;70.85;101389.94;5035361;28;20042;-75
2020/12/28 07:46:40;;;;;;;13.95;1.83;;;;;;;18.41;70.83;101390.81;5023212;28;20042;-73
2020/12/28 07:49:06;;;;;;;6.72;0.93;;;;;;;18.39;71.21;101389.94;5014006;28;20042;-75
2020/12/28 07:51:31;;;;;;;21.40;1.50;;;;;;;18.51;71.04;101387.19;5039318;28;20080;-80
2020/12/28 07:53:56;;;;;;;14.80;1.58;;;;;;;18.59;70.82;101390.72;5022858;28;20044;-78
2020/12/28 07:56:22;;;;;;;14.02;1.30;;;;;;;18.48;70.57;101401.47;5030286;28;20042;-76
2020/12/28 07:58:47;;;;;;;7.25;1.50;;;;;;;18.41;70.68;101399.72;5025292;28;20120;-76
2020/12/28 08:01:12;;;;;;;51.53;2.10;;;;;;;18.42;71.51;101400.63;5050503;28;20041;-75
2020/12/28 08:03:38;;;;;;;53.50;2.38;;;;;;;18.59;71.93;101390.72;5036257;28;20243;-76
2020/12/28 08:06:03;;;;;;;74.03;3.28;;;;;;;18.58;71.33;101400.53;5030609;28;20374;-76
2020/12/28 08:08:28;;;;;;;38.40;3.15;;;;;;;18.52;71.99;101396.97;5036879;28;20087;-77
2020/12/28 08:10:54;;;;;;;42.63;2.92;;;;;;;18.49;71.79;101378.28;5034089;28;20064;-75
2020/12/28 08:13:19;;;;;;;38.03;2.88;;;;;;;18.44;71.88;101390.81;5035225;28;20061;-76
2020/12/28 08:15:44;;;;;;;64.18;3.88;;;;;;;18.40;72.21;101384.56;5049699;28;20131;-73
2020/12/28 08:18:10;;;;;;;45.65;3.47;;;;;;;18.40;71.89;101389.03;5050007;28;20175;-77
2020/12/28 08:20:35;;;;;;;25.38;2.17;;;;;;;18.38;71.59;101393.53;5035884;28;20132;-76
2020/12/28 08:23:00;;;;;;;31.35;1.77;;;;;;;18.36;72.04;101406.91;5031802;28;20099;-75
2020/12/28 08:25:26;;;;;;;22.42;1.50;;;;;;;18.32;71.42;101406.00;5031855;28;20635;-75
2020/12/28 08:27:51;;;;;;;17.35;2.95;;;;;;;18.33;71.53;101409.56;5045367;28;20072;-73
2020/12/28 08:30:17;;;;;;;18.58;1.58;;;;;;;18.31;71.23;101401.56;5045317;28;20045;-77
2020/12/28 08:32:42;;;;;;;31.80;2.20;;;;;;;18.33;71.65;101394.41;5031374;28;20038;-76
2020/12/28 08:35:07;;;;;;;11.57;1.80;;;;;;;18.32;71.56;101389.97;5042287;28;20040;-77
2020/12/28 08:37:32;;;;;;;15.05;1.90;;;;;;;18.33;71.15;101382.84;5050864;28;20048;-73
2020/12/28 08:39:58;;;;;;;25.55;2.05;;;;;;;18.32;71.06;101379.28;5037578;28;20121;-78
2020/12/28 08:42:23;;;;;;;17.45;1.92;;;;;;;18.31;71.19;101382.84;5048987;28;20040;-78
2020/12/28 08:44:48;;;;;;;18.17;1.75;;;;;;;18.30;71.28;101389.13;5049375;28;20128;-75
2020/12/28 08:47:14;;;;;;;10.10;1.58;;;;;;;18.32;71.12;101389.97;5031982;28;20079;-75
2020/12/28 08:49:39;;;;;;;16.85;1.85;;;;;;;18.32;71.27;101381.06;5041475;28;20069;-74
2020/12/28 08:52:04;;;;;;;28.27;2.35;;;;;;;18.34;70.80;101376.59;5049818;28;20063;-74
2020/12/28 08:54:30;;;;;;;17.50;1.75;;;;;;;18.38;70.78;101374.81;5046028;28;20056;-77
2020/12/28 08:56:55;;;;;;;34.90;1.85;;;;;;;18.44;70.29;101370.31;5038382;28;20175;-77
2020/12/28 08:59:21;;;;;;;21.08;2.35;;;;;;;18.38;70.68;101358.78;5032243;28;20029;-79
2020/12/28 09:01:46;;;;;;;30.85;2.50;;;;;;;18.35;70.75;101357.00;5062616;28;20025;-77
2020/12/28 09:04:12;;;;;;;22.67;2.38;;;;;;;18.32;70.55;101352.53;5043834;28;20038;-80
2020/12/28 09:06:37;;;;;;;15.45;2.58;;;;;;;18.31;70.72;101356.09;5047967;28;20045;-79
2020/12/28 09:09:02;;;;;;;13.82;2.92;;;;;;;18.31;70.68;101364.13;5050487;28;20059;-79
2020/12/28 09:11:29;;;;;;;10.10;2.30;;;;;;;18.29;70.68;101363.28;5043776;28;20079;-78
2020/12/28 09:13:56;;;;;;;15.23;1.88;;;;;;;18.29;69.88;101359.72;5044361;28;20128;-79
2020/12/28 09:16:21;;;;;;;11.05;1.95;;;;;;;18.28;70.31;101366.84;5043478;28;20034;-82
2020/12/28 09:18:47;;;;;;;16.70;2.00;;;;;;;18.27;70.00;101365.06;5042862;28;20064;-77
2020/12/28 09:21:12;;;;;;;21.08;2.55;;;;;;;18.37;70.33;101357.00;5041824;28;20034;-79
2020/12/28 09:23:37;;;;;;;34.30;2.42;;;;;;;18.44;69.60;101351.59;5039709;28;20037;-82
2020/12/28 09:26:03;;;;;;;32.78;2.65;;;;;;;18.50;69.76;101358.69;5040035;28;20041;-78
2020/12/28 09:28:28;;;;;;;80.13;5.18;;;;;;;18.59;69.95;101355.94;5046823;28;20049;-79
2020/12/28 09:30:53;;;;;;;59.00;3.60;;;;;;;18.57;69.85;101355.09;5041455;28;20046;-82
2020/12/28 09:33:19;;;;;;;69.25;3.67;;;;;;;18.62;69.99;101358.63;5039722;28;20056;-78
2020/12/28 09:35:44;;;;;;;50.88;4.00;;;;;;;18.61;70.03;101362.19;5047284;28;20041;-79
2020/12/28 09:38:09;;;;;;;54.10;3.63;;;;;;;18.52;70.33;101362.22;5050319;28;20037;-80
2020/12/28 09:40:34;;;;;;;33.50;2.60;;;;;;;18.48;69.64;101349.78;5051235;28;20033;-79
2020/12/28 09:43:00;;;;;;;27.75;2.85;;;;;;;18.44;70.14;101350.72;5050836;28;20041;-80
2020/12/28 09:45:37;;;;;;;16.45;3.03;;;;;;;18.41;70.04;101343.59;5050987;28;20025;-80
2020/12/28 09:48:03;;;;;;;23.88;2.85;;;;;;;18.41;69.89;101335.56;5046337;28;20068;-80
2020/12/28 09:50:28;;;;;;;25.05;2.42;;;;;;;18.41;70.34;101334.66;5049892;28;20033;-80
2020/12/28 09:52:53;;;;;;;21.70;2.42;;;;;;;18.42;70.16;101334.66;5051078;28;20033;-80
2020/12/28 09:55:19;;;;;;;29.70;2.13;;;;;;;18.41;70.07;101330.22;5050980;28;20040;-80
2020/12/28 09:57:44;;;;;;;13.25;2.50;;;;;;;18.40;69.93;101328.44;5051712;28;20091;-79
2020/12/28 10:00:09;;;;;;;12.20;1.85;;;;;;;18.39;70.11;101323.97;5054097;28;20090;-80
2020/12/28 10:02:35;;;;;;;12.23;2.33;;;;;;;18.42;69.50;101326.66;5054181;28;20091;-80
2020/12/28 10:05:01;;;;;;;13.73;1.77;;;;;;;18.41;70.30;101318.63;5053463;28;20092;-80
2020/12/28 10:07:26;;;;;;;8.18;1.58;;;;;;;18.42;69.98;101318.63;5054119;28;20551;-80
2020/12/28 10:09:51;;;;;;;12.48;2.05;;;;;;;18.39;69.71;101315.97;5054449;28;20040;-80
2020/12/28 10:12:17;;;;;;;12.85;1.80;;;;;;;18.41;69.84;101314.19;5054392;28;20047;-80
2020/12/28 10:14:42;;;;;;;10.25;1.75;;;;;;;18.39;70.01;101313.28;5054267;28;20124;-76
2020/12/28 10:17:07;;;;;;;16.38;2.15;;;;;;;18.39;69.83;101296.34;5043782;28;20048;-80
2020/12/28 10:19:33;;;;;;;13.00;2.10;;;;;;;18.39;70.08;101304.38;5034972;28;20045;-79
2020/12/28 10:21:58;;;;;;;6.00;1.52;;;;;;;18.39;70.37;101291.00;5052436;28;20075;-79
2020/12/28 10:24:23;;;;;;;6.25;1.73;;;;;;;18.40;70.12;101288.34;5054799;28;20086;-80
2020/12/28 10:26:49;;;;;;;9.80;1.55;;;;;;;18.38;70.32;101279.44;5052457;28;20584;-79
2020/12/28 10:29:14;;;;;;;7.05;1.33;;;;;;;18.41;70.00;101273.19;5052990;28;20437;-79
2020/12/28 10:31:39;;;;;;;7.45;1.40;;;;;;;18.41;69.95;101275.84;5044683;28;20413;-79
2020/12/28 10:34:05;;;;;;;10.35;1.58;;;;;;;18.41;69.67;101284.75;5053001;28;20118;-79
2020/12/28 10:36:30;;;;;;;8.52;1.80;;;;;;;18.42;70.00;101274.97;5054441;28;20098;-80
2020/12/28 10:38:57;;;;;;;8.40;1.45;;;;;;;18.43;70.04;101274.94;5053162;28;20124;-80
2020/12/28 10:41:22;;;;;;;8.88;1.30;;;;;;;18.42;69.82;101274.97;5053370;28;20037;-79
2020/12/28 10:43:48;;;;;;;8.68;1.70;;;;;;;18.42;69.99;101278.53;5064806;28;20040;-79
2020/12/28 10:46:13;;;;;;;3.38;1.38;;;;;;;18.40;70.41;101271.41;5039503;28;20379;-80
2020/12/28 10:48:38;;;;;;;5.95;1.15;;;;;;;18.40;69.74;101282.09;5054216;28;20398;-80
2020/12/28 10:51:04;;;;;;;10.38;2.10;;;;;;;18.42;69.94;101272.28;5053033;28;20036;-81
2020/12/28 10:53:29;;;;;;;7.32;1.10;;;;;;;18.42;69.81;101272.28;5052486;28;20547;-80
2020/12/28 10:55:54;;;;;;;3.97;1.25;;;;;;;18.40;70.12;101258.94;5053615;28;20577;-80
2020/12/28 10:58:20;;;;;;;5.13;1.30;;;;;;;18.40;69.92;101247.34;5054128;28;20036;-80
2020/12/28 11:00:45;;;;;;;7.40;1.80;;;;;;;18.41;70.17;101257.13;5038408;28;20111;-79
2020/12/28 11:03:10;;;;;;;3.78;1.20;;;;;;;18.43;69.96;101255.34;5053440;28;20139;-80
2020/12/28 11:05:36;;;;;;;4.65;1.20;;;;;;;18.43;70.11;101250.91;5052946;28;20040;-80
2020/12/28 11:08:01;;;;;;;22.13;1.90;;;;;;;18.50;69.64;101251.72;5051335;28;20033;-76
2020/12/28 11:10:26;;;;;;;14.50;1.67;;;;;;;18.48;70.20;101249.06;5052499;28;20131;-80
2020/12/28 11:12:52;;;;;;;15.10;1.40;;;;;;;18.47;70.08;101246.38;5051382;28;20061;-80